Munfordville, Kentucky
Current Conditions -  °F | °C
As of 9:35 AM on Saturday 25 Oct 2014 (Local Time) from KGLW Reporting Station
Overcast Overcast  
Wind Chill: 55°   Ceiling: 4500
Heat Index: 55°   Visibility: 10mi
Dew Point: 51°   Wind: 3mph
Humidity: 88%   Direction: 240°WSW
Pressure: 30.08"   Gusts: NA
Location:  37.27°N, 85.89°W
Report Text: KGLW 251435Z AUTO 24003KT 10SM OVC045 13/11 A3008 RMK AO2 T01280108
Loading
Personal Weather Stations






























Interactive Weather Map
Tropical Storm Tracking
New forecast layout! Learn more

10-Day Weather Forecast

Advertisements
Track Severe Weather on mobile